sensor_id;sensor_type;location;lat;lon;timestamp;temperature;humidity
55269;DHT22;41131;42.990;21.954;2022-10-15T00:00:28;333.20;2329.60
55269;DHT22;41131;42.990;21.954;2022-10-15T00:02:54;333.20;2329.60
55269;DHT22;41131;42.990;21.954;2022-10-15T00:05:20;333.20;2329.60
55269;DHT22;41131;42.990;21.954;2022-10-15T00:07:46;333.20;2329.60
55269;DHT22;41131;42.990;21.954;2022-10-15T00:10:12;333.20;2329.60
55269;DHT22;41131;42.990;21.954;2022-10-15T00:12:39;333.20;2329.60
55269;DHT22;41131;42.990;21.954;2022-10-15T00:15:05;333.30;2329.60
55269;DHT22;41131;42.990;21.954;2022-10-15T00:17:34;333.20;2329.60
55269;DHT22;41131;42.990;21.954;2022-10-15T00:20:02;333.20;2329.60
55269;DHT22;41131;42.990;21.954;2022-10-15T00:22:28;333.20;2329.60
55269;DHT22;41131;42.990;21.954;2022-10-15T00:24:54;333.30;2329.60
55269;DHT22;41131;42.990;21.954;2022-10-15T00:27:19;333.30;2329.60
55269;DHT22;41131;42.990;21.954;2022-10-15T00:29:45;333.20;2329.60
55269;DHT22;41131;42.990;21.954;2022-10-15T00:32:11;333.20;2329.60
55269;DHT22;41131;42.990;21.954;2022-10-15T00:34:36;333.20;2329.60
55269;DHT22;41131;42.990;21.954;2022-10-15T00:37:02;333.20;2329.60
55269;DHT22;41131;42.990;21.954;2022-10-15T00:39:28;333.20;2329.60
55269;DHT22;41131;42.990;21.954;2022-10-15T00:41:54;333.20;2329.60
55269;DHT22;41131;42.990;21.954;2022-10-15T00:46:47;333.20;2329.60
55269;DHT22;41131;42.990;21.954;2022-10-15T00:49:19;333.20;2329.60
55269;DHT22;41131;42.990;21.954;2022-10-15T00:51:53;333.10;2329.60
55269;DHT22;41131;42.990;21.954;2022-10-15T00:54:20;333.10;2329.60
55269;DHT22;41131;42.990;21.954;2022-10-15T00:56:48;333.00;2329.60
55269;DHT22;41131;42.990;21.954;2022-10-15T00:59:15;333.10;2329.60
55269;DHT22;41131;42.990;21.954;2022-10-15T01:01:43;333.00;2329.60
55269;DHT22;41131;42.990;21.954;2022-10-15T01:04:10;333.00;2329.60
55269;DHT22;41131;42.990;21.954;2022-10-15T01:06:37;333.00;2329.60
55269;DHT22;41131;42.990;21.954;2022-10-15T01:09:03;333.00;2329.60
55269;DHT22;41131;42.990;21.954;2022-10-15T01:11:58;333.00;2329.60
55269;DHT22;41131;42.990;21.954;2022-10-15T01:17:47;333.00;2329.60
55269;DHT22;41131;42.990;21.954;2022-10-15T05:40:16;281.70;2278.40
55269;DHT22;41131;42.990;21.954;2022-10-15T05:42:42;281.70;2278.40
55269;DHT22;41131;42.990;21.954;2022-10-15T05:47:34;282.00;2278.40
55269;DHT22;41131;42.990;21.954;2022-10-15T05:49:59;282.00;2278.40
55269;DHT22;41131;42.990;21.954;2022-10-15T05:52:25;281.90;2278.40
55269;DHT22;41131;42.990;21.954;2022-10-15T05:54:51;281.90;2278.40
55269;DHT22;41131;42.990;21.954;2022-10-15T05:57:17;282.30;2278.40
55269;DHT22;41131;42.990;21.954;2022-10-15T05:59:43;282.10;2278.40
55269;DHT22;41131;42.990;21.954;2022-10-15T06:02:09;282.40;2278.40
55269;DHT22;41131;42.990;21.954;2022-10-15T06:04:43;282.50;2278.40
55269;DHT22;41131;42.990;21.954;2022-10-15T06:07:09;282.50;2278.40
55269;DHT22;41131;42.990;21.954;2022-10-15T06:09:35;307.30;2304.00
55269;DHT22;41131;42.990;21.954;2022-10-15T06:12:01;307.40;2304.00
55269;DHT22;41131;42.990;21.954;2022-10-15T06:14:27;307.50;2304.00
55269;DHT22;41131;42.990;21.954;2022-10-15T06:16:54;282.40;2278.40
55269;DHT22;41131;42.990;21.954;2022-10-15T06:19:20;282.30;2278.40
55269;DHT22;41131;42.990;21.954;2022-10-15T06:21:46;282.40;2278.40
55269;DHT22;41131;42.990;21.954;2022-10-15T06:24:12;282.30;2278.40
55269;DHT22;41131;42.990;21.954;2022-10-15T06:26:37;282.50;2278.40
55269;DHT22;41131;42.990;21.954;2022-10-15T06:29:03;307.20;2304.00
55269;DHT22;41131;42.990;21.954;2022-10-15T06:31:30;282.40;2278.40
55269;DHT22;41131;42.990;21.954;2022-10-15T06:33:56;282.30;2278.40
55269;DHT22;41131;42.990;21.954;2022-10-15T06:36:22;282.40;2278.40
55269;DHT22;41131;42.990;21.954;2022-10-15T06:38:49;282.20;2278.40
55269;DHT22;41131;42.990;21.954;2022-10-15T06:41:14;282.10;2278.40
55269;DHT22;41131;42.990;21.954;2022-10-15T06:43:41;282.10;2278.40
55269;DHT22;41131;42.990;21.954;2022-10-15T06:46:07;282.00;2278.40
55269;DHT22;41131;42.990;21.954;2022-10-15T06:48:33;281.80;2278.40
55269;DHT22;41131;42.990;21.954;2022-10-15T06:51:00;282.20;2278.40
55269;DHT22;41131;42.990;21.954;2022-10-15T06:53:27;282.20;2278.40
55269;DHT22;41131;42.990;21.954;2022-10-15T06:56:03;282.30;2278.40
55269;DHT22;41131;42.990;21.954;2022-10-15T06:58:29;282.20;2278.40
55269;DHT22;41131;42.990;21.954;2022-10-15T07:01:02;282.10;2278.40
55269;DHT22;41131;42.990;21.954;2022-10-15T07:03:28;282.00;2278.40
55269;DHT22;41131;42.990;21.954;2022-10-15T07:05:54;281.70;2278.40
55269;DHT22;41131;42.990;21.954;2022-10-15T07:08:20;281.60;2278.40
55269;DHT22;41131;42.990;21.954;2022-10-15T07:10:46;281.80;2278.40
55269;DHT22;41131;42.990;21.954;2022-10-15T07:13:12;282.10;2278.40
55269;DHT22;41131;42.990;21.954;2022-10-15T07:15:39;282.20;2278.40
55269;DHT22;41131;42.990;21.954;2022-10-15T07:18:04;282.20;2278.40
55269;DHT22;41131;42.990;21.954;2022-10-15T07:20:30;282.10;2278.40
55269;DHT22;41131;42.990;21.954;2022-10-15T07:22:57;282.20;2278.40
55269;DHT22;41131;42.990;21.954;2022-10-15T07:25:24;282.20;2278.40
55269;DHT22;41131;42.990;21.954;2022-10-15T07:27:50;282.30;2278.40
55269;DHT22;41131;42.990;21.954;2022-10-15T07:30:16;282.10;2278.40
55269;DHT22;41131;42.990;21.954;2022-10-15T07:32:41;282.10;2278.40
55269;DHT22;41131;42.990;21.954;2022-10-15T07:35:07;282.20;2278.40
55269;DHT22;41131;42.990;21.954;2022-10-15T07:37:33;282.30;2278.40
55269;DHT22;41131;42.990;21.954;2022-10-15T07:39:59;282.00;2278.40
55269;DHT22;41131;42.990;21.954;2022-10-15T07:42:25;282.20;2278.40
55269;DHT22;41131;42.990;21.954;2022-10-15T07:44:51;282.30;2278.40
55269;DHT22;41131;42.990;21.954;2022-10-15T07:47:17;307.20;2304.00
55269;DHT22;41131;42.990;21.954;2022-10-15T07:49:43;307.70;2304.00
55269;DHT22;41131;42.990;21.954;2022-10-15T08:33:36;333.70;2329.60
55269;DHT22;41131;42.990;21.954;2022-10-15T08:36:06;333.40;2329.60
55269;DHT22;41131;42.990;21.954;2022-10-15T08:38:32;333.10;2329.60
55269;DHT22;41131;42.990;21.954;2022-10-15T08:40:59;333.30;2329.60
55269;DHT22;41131;42.990;21.954;2022-10-15T08:43:38;333.40;2329.60
55269;DHT22;41131;42.990;21.954;2022-10-15T08:46:10;333.30;2329.60
55269;DHT22;41131;42.990;21.954;2022-10-15T08:48:37;333.40;2329.60
55269;DHT22;41131;42.990;21.954;2022-10-15T08:51:10;333.60;2329.60
55269;DHT22;41131;42.990;21.954;2022-10-15T08:53:49;333.40;2329.60
55269;DHT22;41131;42.990;21.954;2022-10-15T08:56:37;333.70;2329.60
55269;DHT22;41131;42.990;21.954;2022-10-15T09:24:45;359.30;2329.60
55269;DHT22;41131;42.990;21.954;2022-10-15T09:27:31;359.10;2329.60
55269;DHT22;41131;42.990;21.954;2022-10-15T09:33:02;358.90;2329.60
55269;DHT22;41131;42.990;21.954;2022-10-15T09:35:50;359.10;2329.60
55269;DHT22;41131;42.990;21.954;2022-10-15T09:43:36;384.60;2329.60
55269;DHT22;41131;42.990;21.954;2022-10-15T09:46:03;384.30;2329.60
55269;DHT22;41131;42.990;21.954;2022-10-15T09:48:40;384.60;2329.60
55269;DHT22;41131;42.990;21.954;2022-10-15T09:56:48;384.50;2329.60
55269;DHT22;41131;42.990;21.954;2022-10-15T09:59:24;384.60;2329.60
55269;DHT22;41131;42.990;21.954;2022-10-15T10:02:04;384.80;2329.60
55269;DHT22;41131;42.990;21.954;2022-10-15T10:04:33;409.60;2355.20
55269;DHT22;41131;42.990;21.954;2022-10-15T10:07:04;409.70;2355.20
55269;DHT22;41131;42.990;21.954;2022-10-15T10:12:07;409.90;2355.20
55269;DHT22;41131;42.990;21.954;2022-10-15T10:14:52;409.90;2355.20
55269;DHT22;41131;42.990;21.954;2022-10-15T10:17:21;409.80;2355.20
55269;DHT22;41131;42.990;21.954;2022-10-15T10:22:49;409.70;2355.20
55269;DHT22;41131;42.990;21.954;2022-10-15T10:28:05;410.00;2355.20
55269;DHT22;41131;42.990;21.954;2022-10-15T10:33:36;410.00;2355.20
55269;DHT22;41131;42.990;21.954;2022-10-15T10:36:39;410.00;2355.20
55269;DHT22;41131;42.990;21.954;2022-10-15T10:41:51;435.20;2355.20
55269;DHT22;41131;42.990;21.954;2022-10-15T10:44:20;435.50;2355.20
55269;DHT22;41131;42.990;21.954;2022-10-15T10:49:32;435.60;2355.20
55269;DHT22;41131;42.990;21.954;2022-10-15T10:51:58;436.00;2355.20
55269;DHT22;41131;42.990;21.954;2022-10-15T10:54:25;435.90;2355.20
55269;DHT22;41131;42.990;21.954;2022-10-15T10:56:52;435.80;2355.20
55269;DHT22;41131;42.990;21.954;2022-10-15T10:59:32;435.60;2355.20
55269;DHT22;41131;42.990;21.954;2022-10-15T11:02:00;435.80;2355.20
55269;DHT22;41131;42.990;21.954;2022-10-15T11:04:35;435.80;2355.20
55269;DHT22;41131;42.990;21.954;2022-10-15T11:07:27;435.90;2355.20
55269;DHT22;41131;42.990;21.954;2022-10-15T11:10:25;436.10;2355.20
55269;DHT22;41131;42.990;21.954;2022-10-15T11:15:48;461.00;2380.80
55269;DHT22;41131;42.990;21.954;2022-10-15T11:18:39;461.00;2380.80
55269;DHT22;41131;42.990;21.954;2022-10-15T11:24:15;461.00;2380.80
55269;DHT22;41131;42.990;21.954;2022-10-15T11:27:00;460.80;2380.80
55269;DHT22;41131;42.990;21.954;2022-10-15T11:29:37;460.90;2380.80
55269;DHT22;41131;42.990;21.954;2022-10-15T11:47:52;461.40;2380.80
55269;DHT22;41131;42.990;21.954;2022-10-15T17:06:01;460.80;2380.80
55269;DHT22;41131;42.990;21.954;2022-10-15T17:08:41;435.90;2355.20
55269;DHT22;41131;42.990;21.954;2022-10-15T17:11:17;435.70;2355.20
55269;DHT22;41131;42.990;21.954;2022-10-15T17:13:44;435.60;2355.20
